sensor_id;sensor_type;location;lat;lon;timestamp;pressure;altitude;pressure_sealevel;temperature;humidity
34081;BME280;20358;50.272;19.026;2023-06-10T00:02:53;97966.34;;;14.83;70.85
34081;BME280;20358;50.272;19.026;2023-06-10T00:06:02;97965.59;;;14.63;70.89
34081;BME280;20358;50.272;19.026;2023-06-10T00:09:16;97922.19;;;14.28;71.44
34081;BME280;20358;50.272;19.026;2023-06-10T00:12:24;97965.16;;;14.41;72.20
34081;BME280;20358;50.272;19.026;2023-06-10T00:15:37;97963.53;;;14.40;71.76
34081;BME280;20358;50.272;19.026;2023-06-10T00:18:48;97942.06;;;14.24;72.12
34081;BME280;20358;50.272;19.026;2023-06-10T00:21:57;97962.69;;;14.30;71.98
34081;BME280;20358;50.272;19.026;2023-06-10T00:25:05;97968.63;;;14.24;72.27
34081;BME280;20358;50.272;19.026;2023-06-10T00:28:17;97956.41;;;14.03;71.98
34081;BME280;20358;50.272;19.026;2023-06-10T00:31:27;97965.91;;;14.06;72.86
34081;BME280;20358;50.272;19.026;2023-06-10T00:34:35;97968.69;;;14.04;72.63
34081;BME280;20358;50.272;19.026;2023-06-10T00:37:42;97969.69;;;14.03;72.91
34081;BME280;20358;50.272;19.026;2023-06-10T00:40:51;97991.34;;;13.89;72.97
34081;BME280;20358;50.272;19.026;2023-06-10T00:44:02;97989.97;;;13.76;73.35
34081;BME280;20358;50.272;19.026;2023-06-10T00:47:15;97986.50;;;13.66;73.85
34081;BME280;20358;50.272;19.026;2023-06-10T00:50:22;97990.69;;;13.68;74.35
34081;BME280;20358;50.272;19.026;2023-06-10T00:53:31;97993.63;;;13.65;74.07
34081;BME280;20358;50.272;19.026;2023-06-10T00:56:41;97987.78;;;13.62;73.76
34081;BME280;20358;50.272;19.026;2023-06-10T00:59:51;97964.06;;;13.50;73.84
34081;BME280;20358;50.272;19.026;2023-06-10T01:03:01;97997.81;;;13.68;74.58
34081;BME280;20358;50.272;19.026;2023-06-10T01:06:23;97990.84;;;13.67;74.09
34081;BME280;20358;50.272;19.026;2023-06-10T01:09:45;97995.72;;;13.71;74.16
34081;BME280;20358;50.272;19.026;2023-06-10T01:13:05;97992.78;;;13.74;74.36
34081;BME280;20358;50.272;19.026;2023-06-10T01:16:15;97917.16;;;13.32;74.24
34081;BME280;20358;50.272;19.026;2023-06-10T01:19:27;97991.78;;;13.85;74.31
34081;BME280;20358;50.272;19.026;2023-06-10T01:22:44;97988.28;;;13.84;74.06
34081;BME280;20358;50.272;19.026;2023-06-10T01:26:00;97996.25;;;13.84;74.08
34081;BME280;20358;50.272;19.026;2023-06-10T01:29:18;97992.75;;;13.84;74.39
34081;BME280;20358;50.272;19.026;2023-06-10T01:32:34;97994.97;;;13.88;73.59
34081;BME280;20358;50.272;19.026;2023-06-10T01:35:53;97994.28;;;13.86;73.99
34081;BME280;20358;50.272;19.026;2023-06-10T01:39:04;97984.06;;;13.91;74.13
34081;BME280;20358;50.272;19.026;2023-06-10T01:42:15;97952.56;;;13.69;74.44
34081;BME280;20358;50.272;19.026;2023-06-10T01:45:23;97986.88;;;13.99;74.30
34081;BME280;20358;50.272;19.026;2023-06-10T01:48:31;97991.59;;;14.05;73.58
34081;BME280;20358;50.272;19.026;2023-06-10T01:51:38;97993.25;;;14.06;73.66
34081;BME280;20358;50.272;19.026;2023-06-10T01:54:49;97991.31;;;14.08;73.10
34081;BME280;20358;50.272;19.026;2023-06-10T01:57:57;97991.31;;;14.08;73.64
34081;BME280;20358;50.272;19.026;2023-06-10T02:01:16;97999.13;;;14.10;73.46
34081;BME280;20358;50.272;19.026;2023-06-10T02:04:25;98001.22;;;14.06;73.48
34081;BME280;20358;50.272;19.026;2023-06-10T02:07:34;97998.97;;;14.11;73.00
34081;BME280;20358;50.272;19.026;2023-06-10T02:10:44;98007.50;;;14.15;73.31
34081;BME280;20358;50.272;19.026;2023-06-10T02:13:52;98014.22;;;14.19;73.33
34081;BME280;20358;50.272;19.026;2023-06-10T02:16:59;98001.53;;;14.03;73.70
34081;BME280;20358;50.272;19.026;2023-06-10T02:20:08;98011.56;;;14.09;73.22
34081;BME280;20358;50.272;19.026;2023-06-10T02:23:15;98001.38;;;14.05;73.65
34081;BME280;20358;50.272;19.026;2023-06-10T02:26:26;97991.78;;;13.94;73.69
34081;BME280;20358;50.272;19.026;2023-06-10T02:29:36;98011.16;;;14.04;73.90
34081;BME280;20358;50.272;19.026;2023-06-10T02:32:45;98009.22;;;13.97;74.09
34081;BME280;20358;50.272;19.026;2023-06-10T02:35:55;98013.97;;;13.84;74.45
34081;BME280;20358;50.272;19.026;2023-06-10T02:39:05;98020.56;;;13.80;74.29
34081;BME280;20358;50.272;19.026;2023-06-10T02:42:15;98019.31;;;13.74;74.31
34081;BME280;20358;50.272;19.026;2023-06-10T02:45:28;98023.94;;;13.72;74.64
34081;BME280;20358;50.272;19.026;2023-06-10T02:48:41;98032.19;;;13.69;75.13
34081;BME280;20358;50.272;19.026;2023-06-10T02:51:56;98027.16;;;13.66;75.43
34081;BME280;20358;50.272;19.026;2023-06-10T02:55:03;98019.59;;;13.71;75.01
34081;BME280;20358;50.272;19.026;2023-06-10T02:58:17;98033.84;;;13.80;74.60
34081;BME280;20358;50.272;19.026;2023-06-10T03:01:25;98028.78;;;13.86;75.32
34081;BME280;20358;50.272;19.026;2023-06-10T03:04:38;98024.88;;;13.90;74.33
34081;BME280;20358;50.272;19.026;2023-06-10T03:07:52;98020.69;;;13.97;74.20
34081;BME280;20358;50.272;19.026;2023-06-10T03:11:00;98027.94;;;14.05;74.52
34081;BME280;20358;50.272;19.026;2023-06-10T03:14:11;98016.03;;;14.09;74.00
34081;BME280;20358;50.272;19.026;2023-06-10T03:17:19;98020.09;;;14.13;73.62
34081;BME280;20358;50.272;19.026;2023-06-10T03:20:26;98021.34;;;14.19;73.88
34081;BME280;20358;50.272;19.026;2023-06-10T03:23:37;98021.06;;;14.22;73.17
34081;BME280;20358;50.272;19.026;2023-06-10T03:26:46;98034.34;;;14.22;72.92
34081;BME280;20358;50.272;19.026;2023-06-10T03:29:57;98037.69;;;14.14;73.27
34081;BME280;20358;50.272;19.026;2023-06-10T03:33:05;98041.63;;;14.10;73.25
34081;BME280;20358;50.272;19.026;2023-06-10T03:36:14;98040.53;;;14.03;73.38
34081;BME280;20358;50.272;19.026;2023-06-10T03:39:22;98041.09;;;13.87;74.34
34081;BME280;20358;50.272;19.026;2023-06-10T03:42:35;98039.97;;;13.80;73.82
34081;BME280;20358;50.272;19.026;2023-06-10T03:45:48;98040.13;;;13.69;74.38
34081;BME280;20358;50.272;19.026;2023-06-10T03:48:56;98057.28;;;13.84;74.02
34081;BME280;20358;50.272;19.026;2023-06-10T03:52:05;98057.72;;;13.80;74.85
34081;BME280;20358;50.272;19.026;2023-06-10T03:55:16;98051.28;;;13.82;74.65
34081;BME280;20358;50.272;19.026;2023-06-10T03:58:26;98058.38;;;13.91;74.53
34081;BME280;20358;50.272;19.026;2023-06-10T04:01:37;98060.50;;;13.97;74.01
34081;BME280;20358;50.272;19.026;2023-06-10T04:04:45;98052.00;;;14.03;73.56
34081;BME280;20358;50.272;19.026;2023-06-10T04:07:52;98051.88;;;13.95;73.92
34081;BME280;20358;50.272;19.026;2023-06-10T04:11:01;98054.22;;;13.98;73.73
34081;BME280;20358;50.272;19.026;2023-06-10T04:14:09;98059.50;;;13.98;73.05
34081;BME280;20358;50.272;19.026;2023-06-10T04:17:21;98063.72;;;14.01;72.91
34081;BME280;20358;50.272;19.026;2023-06-10T04:20:29;98055.47;;;14.04;73.53
34081;BME280;20358;50.272;19.026;2023-06-10T04:23:36;98061.50;;;14.06;73.28
34081;BME280;20358;50.272;19.026;2023-06-10T04:26:46;98068.72;;;14.14;73.36
34081;BME280;20358;50.272;19.026;2023-06-10T04:29:53;98064.22;;;14.14;72.70
34081;BME280;20358;50.272;19.026;2023-06-10T04:33:04;98067.84;;;14.23;71.99
34081;BME280;20358;50.272;19.026;2023-06-10T04:36:14;98069.25;;;14.27;71.81
34081;BME280;20358;50.272;19.026;2023-06-10T04:39:23;98068.81;;;14.31;71.60
34081;BME280;20358;50.272;19.026;2023-06-10T04:42:32;98061.53;;;14.33;71.63
34081;BME280;20358;50.272;19.026;2023-06-10T04:45:41;98054.69;;;14.31;71.88
34081;BME280;20358;50.272;19.026;2023-06-10T04:48:51;98054.69;;;14.31;71.81
34081;BME280;20358;50.272;19.026;2023-06-10T04:52:00;98058.59;;;14.36;72.33
34081;BME280;20358;50.272;19.026;2023-06-10T04:55:12;98062.50;;;14.42;71.91
34081;BME280;20358;50.272;19.026;2023-06-10T04:58:26;98059.38;;;14.46;71.87
34081;BME280;20358;50.272;19.026;2023-06-10T05:01:34;98072.50;;;14.48;71.30
34081;BME280;20358;50.272;19.026;2023-06-10T05:04:45;98061.59;;;14.51;71.66
34081;BME280;20358;50.272;19.026;2023-06-10T05:07:52;98067.63;;;14.53;71.99
34081;BME280;20358;50.272;19.026;2023-06-10T05:10:59;98067.31;;;14.56;71.63
34081;BME280;20358;50.272;19.026;2023-06-10T05:14:06;98074.03;;;14.60;72.50
34081;BME280;20358;50.272;19.026;2023-06-10T05:17:14;98081.72;;;14.63;72.58
34081;BME280;20358;50.272;19.026;2023-06-10T05:20:24;98080.81;;;14.72;71.71
34081;BME280;20358;50.272;19.026;2023-06-10T05:23:33;98065.69;;;14.82;72.23
34081;BME280;20358;50.272;19.026;2023-06-10T05:26:40;98072.78;;;14.91;72.30
34081;BME280;20358;50.272;19.026;2023-06-10T05:29:47;98079.19;;;14.98;71.99
34081;BME280;20358;50.272;19.026;2023-06-10T05:32:54;98067.88;;;14.96;71.55
34081;BME280;20358;50.272;19.026;2023-06-10T05:36:05;98076.06;;;15.03;71.58
34081;BME280;20358;50.272;19.026;2023-06-10T05:39:12;98081.94;;;15.06;71.02
34081;BME280;20358;50.272;19.026;2023-06-10T05:42:20;98082.78;;;15.07;70.95
34081;BME280;20358;50.272;19.026;2023-06-10T05:45:27;98080.50;;;15.12;71.35
34081;BME280;20358;50.272;19.026;2023-06-10T05:48:37;98091.16;;;15.29;70.98
34081;BME280;20358;50.272;19.026;2023-06-10T05:51:47;98099.22;;;15.38;70.20
34081;BME280;20358;50.272;19.026;2023-06-10T05:54:56;98096.97;;;15.43;69.69
34081;BME280;20358;50.272;19.026;2023-06-10T05:58:03;98079.19;;;15.43;70.01
34081;BME280;20358;50.272;19.026;2023-06-10T06:01:11;98091.19;;;15.65;69.80
34081;BME280;20358;50.272;19.026;2023-06-10T06:04:18;98094.69;;;15.83;69.81
34081;BME280;20358;50.272;19.026;2023-06-10T06:07:30;98095.13;;;15.96;69.25
34081;BME280;20358;50.272;19.026;2023-06-10T06:10:36;98072.13;;;15.87;69.18
34081;BME280;20358;50.272;19.026;2023-06-10T06:13:44;98105.91;;;16.12;69.22
34081;BME280;20358;50.272;19.026;2023-06-10T06:16:56;98111.47;;;16.19;68.75
34081;BME280;20358;50.272;19.026;2023-06-10T06:20:05;98110.34;;;16.21;68.09
34081;BME280;20358;50.272;19.026;2023-06-10T06:23:16;98116.63;;;16.20;68.40
34081;BME280;20358;50.272;19.026;2023-06-10T06:26:26;98115.66;;;16.21;68.25
34081;BME280;20358;50.272;19.026;2023-06-10T06:29:33;98120.50;;;16.26;68.02
34081;BME280;20358;50.272;19.026;2023-06-10T06:32:41;98122.34;;;16.25;67.70
34081;BME280;20358;50.272;19.026;2023-06-10T06:35:48;98135.03;;;16.31;67.72
34081;BME280;20358;50.272;19.026;2023-06-10T06:39:00;98141.44;;;16.38;67.45
34081;BME280;20358;50.272;19.026;2023-06-10T06:42:09;98139.66;;;16.29;67.09
34081;BME280;20358;50.272;19.026;2023-06-10T06:45:27;98146.56;;;16.32;66.74
34081;BME280;20358;50.272;19.026;2023-06-10T06:48:35;98154.31;;;16.25;66.20
34081;BME280;20358;50.272;19.026;2023-06-10T06:51:43;98157.94;;;16.24;66.92
34081;BME280;20358;50.272;19.026;2023-06-10T06:54:52;98154.91;;;16.19;67.66
34081;BME280;20358;50.272;19.026;2023-06-10T06:58:00;98157.59;;;16.19;67.35
34081;BME280;20358;50.272;19.026;2023-06-10T07:01:07;98150.22;;;16.13;67.39
34081;BME280;20358;50.272;19.026;2023-06-10T07:04:16;98061.31;;;15.53;68.32
34081;BME280;20358;50.272;19.026;2023-06-10T07:07:25;98154.16;;;16.09;68.13
34081;BME280;20358;50.272;19.026;2023-06-10T07:10:35;98157.22;;;16.14;67.63
34081;BME280;20358;50.272;19.026;2023-06-10T07:13:42;98157.59;;;16.19;68.00
34081;BME280;20358;50.272;19.026;2023-06-10T07:16:50;98167.25;;;16.20;67.68
34081;BME280;20358;50.272;19.026;2023-06-10T07:19:57;98168.25;;;16.19;67.91
34081;BME280;20358;50.272;19.026;2023-06-10T07:23:05;98176.88;;;16.13;67.25
34081;BME280;20358;50.272;19.026;2023-06-10T07:26:16;98176.31;;;16.10;67.37
34081;BME280;20358;50.272;19.026;2023-06-10T07:29:24;98150.38;;;15.94;67.31
34081;BME280;20358;50.272;19.026;2023-06-10T07:32:31;98167.50;;;16.09;67.34
34081;BME280;20358;50.272;19.026;2023-06-10T07:35:39;98173.56;;;16.19;67.47
34081;BME280;20358;50.272;19.026;2023-06-10T07:38:49;98104.38;;;15.84;67.61
34081;BME280;20358;50.272;19.026;2023-06-10T07:42:00;98173.06;;;16.33;67.49
34081;BME280;20358;50.272;19.026;2023-06-10T07:45:08;98170.16;;;16.44;67.17
34081;BME280;20358;50.272;19.026;2023-06-10T07:48:16;98183.44;;;16.62;66.31
34081;BME280;20358;50.272;19.026;2023-06-10T07:51:23;98179.81;;;16.71;66.47
34081;BME280;20358;50.272;19.026;2023-06-10T07:54:31;98176.09;;;16.90;66.60
34081;BME280;20358;50.272;19.026;2023-06-10T07:57:42;98183.00;;;17.00;65.37
34081;BME280;20358;50.272;19.026;2023-06-10T08:00:50;98175.78;;;17.19;66.48
34081;BME280;20358;50.272;19.026;2023-06-10T08:03:57;98187.84;;;17.39;64.77
34081;BME280;20358;50.272;19.026;2023-06-10T08:07:09;98183.75;;;17.52;64.24
34081;BME280;20358;50.272;19.026;2023-06-10T08:10:17;98183.09;;;17.58;63.79
34081;BME280;20358;50.272;19.026;2023-06-10T08:13:27;98189.44;;;17.65;63.61
34081;BME280;20358;50.272;19.026;2023-06-10T08:16:35;98172.09;;;17.61;63.34
34081;BME280;20358;50.272;19.026;2023-06-10T08:19:43;98189.53;;;17.82;64.14
34081;BME280;20358;50.272;19.026;2023-06-10T08:22:50;98191.38;;;17.89;62.97
34081;BME280;20358;50.272;19.026;2023-06-10T08:25:58;98198.88;;;17.86;62.89
34081;BME280;20358;50.272;19.026;2023-06-10T08:29:11;98192.88;;;17.84;62.44
34081;BME280;20358;50.272;19.026;2023-06-10T08:32:19;98192.03;;;17.83;61.88
34081;BME280;20358;50.272;19.026;2023-06-10T08:35:26;98197.88;;;17.87;63.09
34081;BME280;20358;50.272;19.026;2023-06-10T08:38:34;98192.88;;;17.84;61.92
34081;BME280;20358;50.272;19.026;2023-06-10T08:41:43;98201.06;;;17.82;62.13
34081;BME280;20358;50.272;19.026;2023-06-10T08:45:16;98190.03;;;17.93;62.95
34081;BME280;20358;50.272;19.026;2023-06-10T08:48:27;98192.41;;;18.04;61.71
34081;BME280;20358;50.272;19.026;2023-06-10T08:51:39;98205.94;;;18.27;62.32
34081;BME280;20358;50.272;19.026;2023-06-10T08:54:52;98206.94;;;18.42;61.29
34081;BME280;20358;50.272;19.026;2023-06-10T08:58:06;98201.09;;;18.47;59.93
34081;BME280;20358;50.272;19.026;2023-06-10T09:01:16;98210.66;;;18.57;60.35
34081;BME280;20358;50.272;19.026;2023-06-10T09:04:25;98214.31;;;18.48;59.97
34081;BME280;20358;50.272;19.026;2023-06-10T09:07:35;98205.97;;;18.51;59.95
34081;BME280;20358;50.272;19.026;2023-06-10T09:10:45;98213.63;;;18.46;59.81
34081;BME280;20358;50.272;19.026;2023-06-10T09:13:53;98219.00;;;18.54;60.33
34081;BME280;20358;50.272;19.026;2023-06-10T09:17:05;98210.13;;;18.46;59.43
34081;BME280;20358;50.272;19.026;2023-06-10T09:20:12;98214.63;;;18.45;59.82
34081;BME280;20358;50.272;19.026;2023-06-10T09:23:21;98219.34;;;18.51;59.66
34081;BME280;20358;50.272;19.026;2023-06-10T09:26:29;98205.78;;;18.53;59.60
34081;BME280;20358;50.272;19.026;2023-06-10T09:29:51;98207.94;;;18.73;59.83
34081;BME280;20358;50.272;19.026;2023-06-10T09:33:11;98214.25;;;18.96;59.92
34081;BME280;20358;50.272;19.026;2023-06-10T09:36:24;98204.56;;;19.04;58.48
34081;BME280;20358;50.272;19.026;2023-06-10T09:39:33;98206.84;;;19.15;58.42
34081;BME280;20358;50.272;19.026;2023-06-10T09:42:40;98205.88;;;19.08;59.15
34081;BME280;20358;50.272;19.026;2023-06-10T09:45:56;98211.94;;;18.93;58.31
34081;BME280;20358;50.272;19.026;2023-06-10T09:49:10;98208.72;;;19.06;58.82
34081;BME280;20358;50.272;19.026;2023-06-10T09:52:22;98211.25;;;18.99;58.15
34081;BME280;20358;50.272;19.026;2023-06-10T09:55:33;98207.91;;;18.89;58.18
34081;BME280;20358;50.272;19.026;2023-06-10T09:58:41;98203.94;;;18.85;56.62
34081;BME280;20358;50.272;19.026;2023-06-10T10:01:54;98212.28;;;18.82;57.05
34081;BME280;20358;50.272;19.026;2023-06-10T10:05:07;98182.88;;;18.66;55.80
34081;BME280;20358;50.272;19.026;2023-06-10T10:08:15;98201.47;;;18.68;56.46
34081;BME280;20358;50.272;19.026;2023-06-10T10:11:27;98207.28;;;18.63;55.98
34081;BME280;20358;50.272;19.026;2023-06-10T10:14:37;98215.31;;;18.71;55.83
34081;BME280;20358;50.272;19.026;2023-06-10T10:17:51;98222.97;;;18.90;55.98
34081;BME280;20358;50.272;19.026;2023-06-10T10:21:12;98222.25;;;19.05;56.57
34081;BME280;20358;50.272;19.026;2023-06-10T10:24:23;98219.91;;;19.10;55.68
34081;BME280;20358;50.272;19.026;2023-06-10T10:27:44;98213.75;;;19.09;54.84
34081;BME280;20358;50.272;19.026;2023-06-10T10:31:08;98192.16;;;19.19;54.68
34081;BME280;20358;50.272;19.026;2023-06-10T10:34:22;98199.81;;;19.30;53.06
34081;BME280;20358;50.272;19.026;2023-06-10T10:37:40;98203.16;;;19.32;54.39
34081;BME280;20358;50.272;19.026;2023-06-10T10:40:51;98201.81;;;19.28;54.21
34081;BME280;20358;50.272;19.026;2023-06-10T10:44:01;98208.84;;;19.29;54.79
34081;BME280;20358;50.272;19.026;2023-06-10T10:47:16;98214.53;;;19.26;53.94
34081;BME280;20358;50.272;19.026;2023-06-10T10:50:28;98192.28;;;19.25;52.88
34081;BME280;20358;50.272;19.026;2023-06-10T10:53:41;98206.53;;;19.18;53.71
34081;BME280;20358;50.272;19.026;2023-06-10T10:57:10;98202.19;;;19.25;54.37
34081;BME280;20358;50.272;19.026;2023-06-10T11:00:25;98198.50;;;19.18;52.62
34081;BME280;20358;50.272;19.026;2023-06-10T11:03:42;98144.03;;;18.86;53.45
34081;BME280;20358;50.272;19.026;2023-06-10T11:06:52;98192.81;;;19.05;53.15
34081;BME280;20358;50.272;19.026;2023-06-10T11:10:06;98188.16;;;19.07;53.79
34081;BME280;20358;50.272;19.026;2023-06-10T11:13:19;98174.50;;;18.85;54.69
34081;BME280;20358;50.272;19.026;2023-06-10T11:16:28;98188.72;;;18.86;54.19
34081;BME280;20358;50.272;19.026;2023-06-10T11:19:37;98175.16;;;18.79;55.20
34081;BME280;20358;50.272;19.026;2023-06-10T11:22:58;98179.88;;;18.69;55.17
34081;BME280;20358;50.272;19.026;2023-06-10T11:26:16;98177.88;;;18.71;56.15
34081;BME280;20358;50.272;19.026;2023-06-10T11:29:24;98179.75;;;18.63;55.84
34081;BME280;20358;50.272;19.026;2023-06-10T11:32:34;98172.84;;;18.68;56.24
34081;BME280;20358;50.272;19.026;2023-06-10T11:35:43;98175.19;;;18.71;54.80
34081;BME280;20358;50.272;19.026;2023-06-10T11:38:55;98173.16;;;18.73;55.00
34081;BME280;20358;50.272;19.026;2023-06-10T11:42:07;98179.53;;;18.80;54.74
34081;BME280;20358;50.272;19.026;2023-06-10T11:45:15;98176.84;;;18.80;54.87
34081;BME280;20358;50.272;19.026;2023-06-10T11:48:23;98152.81;;;18.56;53.62
34081;BME280;20358;50.272;19.026;2023-06-10T11:51:39;98123.72;;;18.45;54.66
34081;BME280;20358;50.272;19.026;2023-06-10T11:54:54;98169.13;;;18.93;55.16
34081;BME280;20358;50.272;19.026;2023-06-10T11:58:04;98159.72;;;19.06;55.54
34081;BME280;20358;50.272;19.026;2023-06-10T12:01:19;98167.41;;;19.17;55.33
34081;BME280;20358;50.272;19.026;2023-06-10T12:04:31;98157.31;;;19.27;54.21
34081;BME280;20358;50.272;19.026;2023-06-10T12:07:38;98151.22;;;19.41;53.46
34081;BME280;20358;50.272;19.026;2023-06-10T12:10:46;98153.66;;;19.58;52.78
34081;BME280;20358;50.272;19.026;2023-06-10T12:13:56;98159.72;;;19.75;51.40
34081;BME280;20358;50.272;19.026;2023-06-10T12:17:04;98170.75;;;19.80;50.87
34081;BME280;20358;50.272;19.026;2023-06-10T12:20:25;98158.28;;;19.95;51.71
34081;BME280;20358;50.272;19.026;2023-06-10T12:23:35;98154.84;;;20.09;51.07
34081;BME280;20358;50.272;19.026;2023-06-10T12:26:44;98157.81;;;20.14;50.59
34081;BME280;20358;50.272;19.026;2023-06-10T12:29:57;98155.56;;;20.26;49.89
34081;BME280;20358;50.272;19.026;2023-06-10T12:33:16;98156.41;;;20.41;50.15
34081;BME280;20358;50.272;19.026;2023-06-10T12:36:24;98144.50;;;20.44;49.89
34081;BME280;20358;50.272;19.026;2023-06-10T12:39:32;98146.47;;;20.50;49.09
34081;BME280;20358;50.272;19.026;2023-06-10T12:42:40;98157.19;;;20.50;48.81
34081;BME280;20358;50.272;19.026;2023-06-10T12:45:54;98116.44;;;20.32;48.52
34081;BME280;20358;50.272;19.026;2023-06-10T12:49:01;98152.13;;;20.55;49.09
34081;BME280;20358;50.272;19.026;2023-06-10T12:52:08;98145.38;;;20.59;49.44
34081;BME280;20358;50.272;19.026;2023-06-10T12:55:16;98110.63;;;20.43;48.35
34081;BME280;20358;50.272;19.026;2023-06-10T12:58:23;98140.56;;;20.69;48.72
34081;BME280;20358;50.272;19.026;2023-06-10T13:01:33;98144.00;;;20.92;49.48
34081;BME280;20358;50.272;19.026;2023-06-10T13:04:40;98139.88;;;21.19;48.92
34081;BME280;20358;50.272;19.026;2023-06-10T13:07:49;98150.59;;;21.33;48.34
34081;BME280;20358;50.272;19.026;2023-06-10T13:10:55;98076.53;;;20.95;47.98
34081;BME280;20358;50.272;19.026;2023-06-10T13:14:04;98146.69;;;21.51;48.10
34081;BME280;20358;50.272;19.026;2023-06-10T13:17:14;98140.81;;;21.62;48.23
34081;BME280;20358;50.272;19.026;2023-06-10T13:20:23;98141.53;;;21.70;47.35
34081;BME280;20358;50.272;19.026;2023-06-10T13:23:30;98121.16;;;21.61;47.30
34081;BME280;20358;50.272;19.026;2023-06-10T13:26:39;98127.81;;;21.80;47.13
34081;BME280;20358;50.272;19.026;2023-06-10T13:29:47;98120.66;;;21.87;47.32
34081;BME280;20358;50.272;19.026;2023-06-10T13:32:57;98132.34;;;22.00;46.52
34081;BME280;20358;50.272;19.026;2023-06-10T13:36:05;98133.19;;;22.01;46.21
34081;BME280;20358;50.272;19.026;2023-06-10T13:39:15;98125.50;;;21.98;46.43
34081;BME280;20358;50.272;19.026;2023-06-10T13:42:21;98114.13;;;21.96;46.75
34081;BME280;20358;50.272;19.026;2023-06-10T13:45:35;98124.22;;;21.94;47.00
34081;BME280;20358;50.272;19.026;2023-06-10T13:48:45;98126.03;;;21.87;47.46
34081;BME280;20358;50.272;19.026;2023-06-10T13:51:53;98115.66;;;21.84;47.59
34081;BME280;20358;50.272;19.026;2023-06-10T13:55:00;98127.41;;;21.83;47.56
34081;BME280;20358;50.272;19.026;2023-06-10T13:58:13;98116.41;;;21.78;47.28
34081;BME280;20358;50.272;19.026;2023-06-10T14:01:20;98119.56;;;21.81;47.75
34081;BME280;20358;50.272;19.026;2023-06-10T14:04:32;98123.47;;;21.79;47.14
34081;BME280;20358;50.272;19.026;2023-06-10T14:07:39;98125.91;;;21.74;47.00
34081;BME280;20358;50.272;19.026;2023-06-10T14:10:47;98133.13;;;21.59;47.38
34081;BME280;20358;50.272;19.026;2023-06-10T14:13:54;98125.03;;;21.37;47.42
34081;BME280;20358;50.272;19.026;2023-06-10T14:17:05;98130.16;;;21.18;48.14
34081;BME280;20358;50.272;19.026;2023-06-10T14:20:15;98147.72;;;21.06;48.80
34081;BME280;20358;50.272;19.026;2023-06-10T14:23:22;98161.28;;;20.60;43.89
34081;BME280;20358;50.272;19.026;2023-06-10T14:26:31;98173.78;;;20.31;44.40
34081;BME280;20358;50.272;19.026;2023-06-10T14:29:38;98176.00;;;20.04;47.44
34081;BME280;20358;50.272;19.026;2023-06-10T14:32:46;98169.66;;;19.67;50.14
34081;BME280;20358;50.272;19.026;2023-06-10T14:35:57;98165.31;;;19.35;52.17
34081;BME280;20358;50.272;19.026;2023-06-10T14:39:04;98148.00;;;19.07;54.43
34081;BME280;20358;50.272;19.026;2023-06-10T14:42:14;98135.06;;;18.71;52.68
34081;BME280;20358;50.272;19.026;2023-06-10T14:45:21;98140.28;;;18.57;52.21
34081;BME280;20358;50.272;19.026;2023-06-10T14:48:29;98147.16;;;18.51;54.11
34081;BME280;20358;50.272;19.026;2023-06-10T14:51:39;98152.78;;;18.40;55.31
34081;BME280;20358;50.272;19.026;2023-06-10T14:54:49;98149.31;;;18.31;55.82
34081;BME280;20358;50.272;19.026;2023-06-10T14:57:56;98147.13;;;18.27;57.66
34081;BME280;20358;50.272;19.026;2023-06-10T15:01:03;98147.13;;;18.27;58.39
34081;BME280;20358;50.272;19.026;2023-06-10T15:04:11;98148.28;;;18.24;58.70
34081;BME280;20358;50.272;19.026;2023-06-10T15:07:22;98152.31;;;18.20;59.76
34081;BME280;20358;50.272;19.026;2023-06-10T15:10:28;98152.00;;;18.15;60.35
34081;BME280;20358;50.272;19.026;2023-06-10T15:13:36;98157.47;;;18.14;61.32
34081;BME280;20358;50.272;19.026;2023-06-10T15:16:43;98148.13;;;18.10;61.28
34081;BME280;20358;50.272;19.026;2023-06-10T15:19:51;98156.81;;;17.96;62.26
34081;BME280;20358;50.272;19.026;2023-06-10T15:23:02;98152.63;;;17.85;61.87
34081;BME280;20358;50.272;19.026;2023-06-10T15:26:12;98155.78;;;17.81;63.77
34081;BME280;20358;50.272;19.026;2023-06-10T15:29:19;98120.00;;;17.57;63.54
34081;BME280;20358;50.272;19.026;2023-06-10T15:32:27;98157.16;;;17.85;63.57
34081;BME280;20358;50.272;19.026;2023-06-10T15:35:34;98156.13;;;17.86;63.51
34081;BME280;20358;50.272;19.026;2023-06-10T15:38:45;98167.66;;;17.94;63.33
34081;BME280;20358;50.272;19.026;2023-06-10T15:41:52;98170.16;;;17.96;63.95
34081;BME280;20358;50.272;19.026;2023-06-10T15:44:59;98151.13;;;17.91;63.28
34081;BME280;20358;50.272;19.026;2023-06-10T15:48:06;98164.50;;;18.07;63.76
34081;BME280;20358;50.272;19.026;2023-06-10T15:51:16;98167.84;;;18.09;62.89
34081;BME280;20358;50.272;19.026;2023-06-10T15:54:26;98170.19;;;18.12;62.52
34081;BME280;20358;50.272;19.026;2023-06-10T15:57:34;98168.19;;;18.14;62.47
34081;BME280;20358;50.272;19.026;2023-06-10T16:00:41;98171.53;;;18.16;62.74
34081;BME280;20358;50.272;19.026;2023-06-10T16:03:51;98169.69;;;18.16;62.78
34081;BME280;20358;50.272;19.026;2023-06-10T16:06:58;98169.53;;;18.18;62.58
34081;BME280;20358;50.272;19.026;2023-06-10T16:10:09;98168.03;;;18.23;62.60
34081;BME280;20358;50.272;19.026;2023-06-10T16:13:17;98153.81;;;18.23;62.41
34081;BME280;20358;50.272;19.026;2023-06-10T16:16:24;98166.16;;;18.32;62.31
34081;BME280;20358;50.272;19.026;2023-06-10T16:19:32;98130.09;;;18.20;62.32
34081;BME280;20358;50.272;19.026;2023-06-10T16:22:46;98166.50;;;18.45;62.49
34081;BME280;20358;50.272;19.026;2023-06-10T16:25:56;98182.25;;;18.48;62.76
34081;BME280;20358;50.272;19.026;2023-06-10T16:29:04;98190.91;;;18.50;62.83
34081;BME280;20358;50.272;19.026;2023-06-10T16:32:10;98196.94;;;18.44;62.59
34081;BME280;20358;50.272;19.026;2023-06-10T16:35:19;98192.94;;;18.48;63.06